Time;durP1;ratioP1;P1;durP2;ratioP2;P2;SDS_P1;SDS_P2;PMS_P1;PMS_P2;Temp;Humidity;BMP_temperature;BMP_pressure;BME280_temperature;BME280_humidity;BME280_pressure;Samples;Min_cycle;Max_cycle;Signal;HPM_P1;HPM_P2
2023/09/06 00:00:04;;;;;;;2.53;1.20;;;17.60;99.90;;;;;;5048268;28;20085;-66
2023/09/06 00:02:30;;;;;;;3.05;1.45;;;17.60;99.90;;;;;;4969829;28;20111;-66
2023/09/06 00:04:56;;;;;;;2.60;1.27;;;17.60;99.90;;;;;;4970271;28;20039;-66
2023/09/06 00:07:23;;;;;;;3.67;1.65;;;17.50;99.90;;;;;;4969981;28;20187;-66
2023/09/06 00:09:48;;;;;;;4.03;1.65;;;17.60;99.90;;;;;;4970464;28;20054;-66
2023/09/06 00:12:14;;;;;;;2.10;1.35;;;17.50;99.90;;;;;;4970375;28;20363;-66
2023/09/06 00:14:40;;;;;;;3.28;1.48;;;17.60;99.90;;;;;;5036700;28;20078;-65
2023/09/06 00:17:08;;;;;;;2.75;1.20;;;17.60;99.90;;;;;;5071042;28;20053;-65
2023/09/06 00:19:35;;;;;;;3.20;1.52;;;17.50;99.90;;;;;;5009360;28;20037;-66
2023/09/06 00:22:02;;;;;;;2.88;1.58;;;17.50;99.90;;;;;;5076718;28;20112;-66
2023/09/06 00:24:28;;;;;;;3.35;1.80;;;17.50;99.90;;;;;;5076969;28;20537;-66
2023/09/06 00:26:57;;;;;;;3.30;2.05;;;17.50;99.90;;;;;;5063557;28;20050;-66
2023/09/06 00:29:23;;;;;;;2.17;1.00;;;17.50;99.90;;;;;;5055438;28;20123;-66
2023/09/06 00:31:49;;;;;;;3.03;1.52;;;17.50;99.90;;;;;;5057061;28;20506;-66
2023/09/06 00:34:15;;;;;;;1.90;1.02;;;17.50;99.90;;;;;;5047188;28;20438;-66
2023/09/06 00:36:41;;;;;;;4.45;1.63;;;17.40;99.90;;;;;;5073146;28;20043;-66
2023/09/06 00:39:06;;;;;;;2.55;1.55;;;17.40;99.90;;;;;;5091945;28;20114;-66
2023/09/06 00:41:32;;;;;;;2.35;1.50;;;17.30;99.90;;;;;;5091721;28;20131;-66
2023/09/06 00:43:58;;;;;;;3.65;1.50;;;17.30;99.90;;;;;;5072942;28;20418;-66
2023/09/06 00:46:26;;;;;;;4.10;1.13;;;17.20;99.90;;;;;;5073695;28;20062;-66
2023/09/06 00:48:53;;;;;;;1.98;1.10;;;17.20;99.90;;;;;;5056247;28;20053;-66
2023/09/06 00:51:19;;;;;;;4.45;2.03;;;17.30;99.90;;;;;;4988494;28;20050;-66
2023/09/06 00:53:47;;;;;;;3.90;2.05;;;17.30;99.90;;;;;;4988895;28;20042;-66
2023/09/06 00:56:17;;;;;;;9.07;1.83;;;17.40;99.90;;;;;;5047522;28;20039;-66
2023/09/06 00:58:43;;;;;;;4.20;1.75;;;17.40;99.90;;;;;;5037343;28;20050;-66
2023/09/06 01:01:09;;;;;;;2.25;1.40;;;17.50;99.90;;;;;;5055733;28;20034;-66
2023/09/06 01:03:35;;;;;;;3.88;1.90;;;17.50;99.90;;;;;;5055510;28;20042;-66
2023/09/06 01:06:14;;;;;;;3.47;1.75;;;17.60;99.90;;;;;;5056474;28;20042;-66
2023/09/06 01:08:47;;;;;;;4.55;2.13;;;17.60;99.90;;;;;;4989053;28;20091;-66
2023/09/06 01:11:19;;;;;;;3.10;1.45;;;17.60;99.90;;;;;;5055384;28;20096;-66
2023/09/06 01:13:48;;;;;;;3.50;1.75;;;17.60;99.90;;;;;;5055838;28;20054;-66
2023/09/06 01:16:38;;;;;;;2.90;1.73;;;17.70;99.90;;;;;;5065884;28;20206;-66
2023/09/06 01:19:06;;;;;;;2.30;1.60;;;17.70;99.90;;;;;;5007582;28;20069;-66
2023/09/06 01:21:38;;;;;;;2.28;1.20;;;17.70;99.90;;;;;;5076080;28;20038;-66
2023/09/06 01:24:05;;;;;;;2.25;1.52;;;17.60;99.90;;;;;;5008098;28;20054;-66
2023/09/06 01:26:32;;;;;;;3.72;2.10;;;17.60;99.90;;;;;;5075605;28;20072;-66
2023/09/06 01:28:58;;;;;;;1.70;1.30;;;17.50;99.90;;;;;;5075530;28;20046;-66
2023/09/06 01:31:24;;;;;;;2.95;1.98;;;17.50;99.90;;;;;;5075285;28;20049;-66
2023/09/06 01:33:50;;;;;;;4.88;1.90;;;17.50;99.90;;;;;;5060163;28;20803;-66
2023/09/06 01:36:15;;;;;;;6.70;1.90;;;17.40;99.90;;;;;;5035704;28;20054;-66
2023/09/06 01:38:41;;;;;;;3.03;1.38;;;17.40;99.90;;;;;;5035358;28;20058;-66
2023/09/06 01:41:11;;;;;;;2.10;1.15;;;17.40;99.90;;;;;;5035512;28;20467;-66
2023/09/06 01:43:37;;;;;;;3.35;1.48;;;17.30;99.90;;;;;;5035729;28;20395;-66
2023/09/06 01:46:03;;;;;;;2.53;1.50;;;17.20;99.90;;;;;;5049733;28;20050;-66
2023/09/06 01:48:29;;;;;;;2.10;1.45;;;17.10;99.90;;;;;;5055471;28;20046;-66
2023/09/06 01:50:55;;;;;;;5.55;1.38;;;16.90;99.90;;;;;;5055464;28;20046;-66
2023/09/06 01:53:22;;;;;;;2.88;1.52;;;16.90;99.90;;;;;;5054771;28;20519;-66
2023/09/06 01:55:49;;;;;;;1.85;1.20;;;16.80;99.90;;;;;;5090194;28;20530;-66
2023/09/06 01:58:16;;;;;;;3.33;1.40;;;16.80;99.90;;;;;;5072075;28;20199;-66
2023/09/06 02:00:44;;;;;;;3.40;0.93;;;16.70;99.90;;;;;;5054069;28;20047;-66
2023/09/06 02:03:14;;;;;;;3.45;1.77;;;16.70;99.90;;;;;;4988189;28;20516;-66
2023/09/06 02:05:43;;;;;;;2.13;1.27;;;16.60;99.90;;;;;;5038629;28;20046;-65
2023/09/06 02:08:10;;;;;;;3.90;1.83;;;16.60;99.90;;;;;;4987567;28;20042;-65
2023/09/06 02:10:36;;;;;;;3.15;1.77;;;16.50;99.90;;;;;;4988187;28;20115;-65
2023/09/06 02:13:02;;;;;;;2.45;1.52;;;16.50;99.90;;;;;;4988079;28;20061;-66
2023/09/06 02:15:30;;;;;;;2.58;1.20;;;16.40;99.90;;;;;;5054215;28;20530;-67
2023/09/06 02:17:56;;;;;;;2.47;1.17;;;16.40;99.90;;;;;;5038303;28;20046;-67
2023/09/06 02:20:22;;;;;;;2.58;1.50;;;16.30;99.90;;;;;;5054418;28;20042;-66
2023/09/06 02:22:55;;;;;;;4.20;1.83;;;16.20;99.90;;;;;;4987658;28;20065;-66
2023/09/06 02:25:23;;;;;;;3.03;1.60;;;16.10;99.90;;;;;;4986341;28;20058;-66
2023/09/06 02:27:49;;;;;;;3.00;1.52;;;16.00;99.90;;;;;;4985958;28;20051;-66
2023/09/06 02:30:15;;;;;;;2.53;1.60;;;15.90;99.90;;;;;;4978772;28;20062;-66
2023/09/06 02:32:41;;;;;;;2.83;1.23;;;15.80;99.90;;;;;;5035151;28;20614;-66
2023/09/06 02:35:07;;;;;;;3.70;1.25;;;15.80;99.90;;;;;;5034420;28;20031;-66
2023/09/06 02:37:36;;;;;;;3.13;1.77;;;15.80;99.90;;;;;;4968263;28;20108;-66
2023/09/06 02:40:12;;;;;;;2.47;1.60;;;15.80;99.90;;;;;;4968402;28;20031;-66
2023/09/06 02:42:38;;;;;;;4.97;1.33;;;15.80;99.90;;;;;;5052011;28;20039;-66
2023/09/06 02:45:11;;;;;;;3.45;1.73;;;15.70;99.90;;;;;;5054688;28;20126;-66
2023/09/06 02:48:06;;;;;;;2.55;1.48;;;15.80;99.90;;;;;;4970917;28;20034;-66
2023/09/06 02:50:30;;;;;;;2.08;1.25;;;15.80;99.90;;;;;;4997555;28;20107;-66
2023/09/06 02:52:56;;;;;;;3.00;1.83;;;15.80;99.90;;;;;;5052731;28;20050;-66
2023/09/06 02:55:22;;;;;;;3.97;1.58;;;15.80;99.90;;;;;;4987760;28;20038;-66
2023/09/06 02:57:49;;;;;;;4.25;2.17;;;15.80;99.90;;;;;;5056498;28;20050;-66
2023/09/06 03:00:28;;;;;;;2.30;1.30;;;15.80;99.90;;;;;;5057431;28;20074;-66
2023/09/06 03:03:05;;;;;;;3.78;1.30;;;15.80;99.90;;;;;;5055156;28;20052;-66
2023/09/06 03:05:31;;;;;;;3.42;1.35;;;15.80;99.90;;;;;;5056070;28;20398;-66
2023/09/06 03:07:57;;;;;;;3.00;1.52;;;15.80;99.90;;;;;;5041746;28;20038;-66
2023/09/06 03:10:23;;;;;;;3.35;1.58;;;15.80;99.90;;;;;;4990179;28;20551;-66
2023/09/06 03:12:58;;;;;;;1.30;1.08;;;15.80;99.90;;;;;;5058064;28;20069;-66
2023/09/06 03:15:27;;;;;;;2.42;1.30;;;15.70;99.90;;;;;;4990460;28;20049;-66
2023/09/06 03:17:53;;;;;;;2.63;1.67;;;15.70;99.90;;;;;;4989853;28;20046;-66
2023/09/06 03:20:31;;;;;;;2.63;1.55;;;15.70;99.90;;;;;;4990527;28;20042;-66
2023/09/06 03:23:00;;;;;;;3.45;1.80;;;15.70;99.90;;;;;;4990336;28;20041;-66
2023/09/06 03:25:27;;;;;;;3.75;1.55;;;15.70;99.90;;;;;;4988962;28;20046;-66
2023/09/06 03:28:00;;;;;;;4.53;2.00;;;15.70;99.90;;;;;;4970898;28;20069;-66
2023/09/06 03:30:33;;;;;;;2.92;1.60;;;15.70;99.90;;;;;;5054206;28;20047;-66
2023/09/06 03:32:59;;;;;;;6.03;1.90;;;15.80;99.90;;;;;;5038181;28;20046;-66
2023/09/06 03:35:26;;;;;;;2.63;1.60;;;15.80;99.90;;;;;;5054658;28;20457;-66
2023/09/06 03:37:52;;;;;;;5.25;2.17;;;15.80;99.90;;;;;;5054454;28;20038;-66
2023/09/06 03:40:25;;;;;;;5.60;1.95;;;15.80;99.90;;;;;;4990332;28;20463;-66
2023/09/06 03:42:57;;;;;;;2.90;1.60;;;15.90;99.90;;;;;;5057607;28;20057;-66
2023/09/06 03:46:14;;;;;;;3.28;1.65;;;15.90;99.90;;;;;;4989822;28;20038;-66
2023/09/06 03:48:40;;;;;;;4.00;2.20;;;15.90;99.90;;;;;;4989093;28;20145;-67
2023/09/06 03:51:07;;;;;;;3.05;1.40;;;15.90;99.90;;;;;;4988849;28;20129;-66
2023/09/06 03:53:37;;;;;;;3.33;1.45;;;15.90;99.90;;;;;;5044159;28;20042;-66
2023/09/06 03:56:02;;;;;;;3.53;1.90;;;15.90;99.90;;;;;;5057156;28;20051;-66
2023/09/06 03:58:28;;;;;;;2.70;1.48;;;15.90;99.90;;;;;;5056879;28;20058;-66
2023/09/06 04:00:54;;;;;;;4.15;1.90;;;15.90;99.90;;;;;;5056918;28;20042;-67
2023/09/06 04:03:22;;;;;;;4.00;1.90;;;15.90;99.90;;;;;;5056336;28;20122;-67
2023/09/06 04:05:48;;;;;;;3.50;1.85;;;15.90;99.90;;;;;;5055253;28;20112;-67
2023/09/06 04:08:17;;;;;;;4.55;2.20;;;16.00;99.90;;;;;;4989826;28;20042;-66
2023/09/06 04:10:44;;;;;;;3.00;1.45;;;16.00;99.90;;;;;;5056976;28;20042;-66
2023/09/06 04:13:12;;;;;;;3.20;1.80;;;16.00;99.90;;;;;;5056822;28;20409;-67
2023/09/06 04:15:42;;;;;;;3.88;2.08;;;16.00;99.90;;;;;;4989601;28;20444;-67
2023/09/06 04:18:10;;;;;;;5.25;1.92;;;16.00;99.90;;;;;;4989636;28;20047;-66
2023/09/06 04:20:38;;;;;;;3.80;2.30;;;16.10;99.90;;;;;;4989234;28;20038;-66
2023/09/06 04:23:06;;;;;;;4.35;1.95;;;16.00;99.90;;;;;;5019479;28;20521;-66
2023/09/06 04:25:41;;;;;;;3.38;1.70;;;16.00;99.90;;;;;;5056321;28;20470;-67
2023/09/06 04:28:08;;;;;;;3.88;1.85;;;16.00;99.90;;;;;;4988976;28;20050;-67
2023/09/06 04:30:36;;;;;;;3.13;1.80;;;15.90;99.90;;;;;;4989766;28;20038;-67
2023/09/06 04:33:03;;;;;;;5.65;1.98;;;15.90;99.90;;;;;;4989683;28;20030;-66
2023/09/06 04:35:34;;;;;;;5.60;2.03;;;16.00;99.90;;;;;;5008308;28;20121;-66
2023/09/06 04:38:02;;;;;;;3.60;1.85;;;16.00;99.90;;;;;;5076974;28;20068;-66
2023/09/06 04:40:29;;;;;;;3.72;1.70;;;16.00;99.90;;;;;;5076319;28;20042;-66
2023/09/06 04:42:55;;;;;;;2.80;1.73;;;16.00;99.90;;;;;;5076678;28;20077;-66
2023/09/06 04:45:22;;;;;;;3.92;1.90;;;16.00;99.90;;;;;;5074922;28;20041;-66
2023/09/06 04:47:47;;;;;;;4.75;1.98;;;16.00;99.90;;;;;;5056135;28;20046;-66
2023/09/06 04:50:13;;;;;;;3.72;1.92;;;16.00;99.90;;;;;;5056376;28;20126;-67
2023/09/06 04:52:46;;;;;;;3.20;1.33;;;16.00;99.90;;;;;;5038197;28;20040;-67
2023/09/06 04:55:14;;;;;;;2.97;1.65;;;16.00;99.90;;;;;;5072813;28;20441;-67
2023/09/06 04:57:43;;;;;;;3.90;2.05;;;16.00;99.90;;;;;;5030663;28;20371;-67
2023/09/06 05:00:17;;;;;;;5.07;2.27;;;16.00;99.90;;;;;;4988866;28;20355;-67
2023/09/06 05:02:46;;;;;;;4.15;2.22;;;16.00;99.90;;;;;;5055680;28;20277;-67
2023/09/06 05:05:14;;;;;;;;;;;16.00;99.90;;;;;;5056602;28;20049;-67
2023/09/06 05:07:41;;;;;;;3.33;1.55;;;16.00;99.90;;;;;;4989158;28;20254;-66
2023/09/06 05:10:11;;;;;;;2.83;1.58;;;16.00;99.90;;;;;;5055697;28;20183;-67
2023/09/06 05:12:36;;;;;;;;;;;16.10;99.90;;;;;;5056331;28;20050;-67
2023/09/06 05:15:04;;;;;;;4.25;1.88;;;16.10;99.90;;;;;;5055881;28;19940;-67
2023/09/06 05:17:29;;;;;;;4.95;2.63;;;16.20;99.90;;;;;;5055168;28;20083;-68
2023/09/06 05:19:55;;;;;;;5.82;2.17;;;16.20;99.90;;;;;;5035585;28;20047;-67
2023/09/06 05:22:24;;;;;;;5.43;1.90;;;16.30;99.90;;;;;;4968523;28;20046;-67
2023/09/06 05:24:50;;;;;;;5.57;2.10;;;16.40;99.90;;;;;;4967997;28;20471;-67
2023/09/06 05:27:17;;;;;;;3.97;2.00;;;16.40;99.90;;;;;;4968284;28;20053;-67
2023/09/06 05:29:43;;;;;;;3.35;1.85;;;16.40;99.90;;;;;;4971591;28;20455;-68
2023/09/06 05:32:09;;;;;;;2.75;1.65;;;16.40;99.90;;;;;;5038518;28;20046;-67
2023/09/06 05:34:35;;;;;;;2.95;1.65;;;16.50;99.90;;;;;;5068992;28;20550;-67
2023/09/06 05:37:00;;;;;;;4.18;1.92;;;16.50;99.90;;;;;;5075117;28;20102;-67
2023/09/06 05:39:26;;;;;;;5.70;2.35;;;16.50;99.90;;;;;;5075778;28;20390;-67
2023/09/06 05:41:54;;;;;;;12.50;2.47;;;16.60;99.90;;;;;;5004393;28;20087;-67
2023/09/06 05:44:19;;;;;;;3.58;1.80;;;16.60;99.90;;;;;;5054998;28;20444;-67
2023/09/06 05:46:45;;;;;;;2.50;1.77;;;16.70;99.90;;;;;;4988421;28;20046;-67
2023/09/06 05:49:11;;;;;;;4.78;2.10;;;16.70;99.90;;;;;;4988183;28;20050;-67
2023/09/06 05:51:37;;;;;;;3.13;1.88;;;16.80;99.90;;;;;;4992856;28;20065;-67
2023/09/06 05:54:03;;;;;;;3.58;1.67;;;16.80;99.90;;;;;;5072440;28;20040;-67
2023/09/06 05:56:28;;;;;;;4.82;2.58;;;16.90;99.90;;;;;;5090515;28;20438;-67
2023/09/06 05:58:55;;;;;;;3.10;1.70;;;16.90;99.90;;;;;;5074563;28;20042;-68
2023/09/06 06:01:21;;;;;;;3.05;1.58;;;17.00;99.90;;;;;;5055343;28;20138;-66
2023/09/06 06:03:47;;;;;;;3.00;1.63;;;17.10;99.90;;;;;;5055334;28;20042;-67
2023/09/06 06:06:17;;;;;;;3.70;1.80;;;17.10;99.90;;;;;;5054612;28;20562;-68
2023/09/06 06:08:43;;;;;;;4.18;2.00;;;17.20;99.90;;;;;;5055241;28;20046;-68
2023/09/06 06:11:09;;;;;;;2.72;1.67;;;17.30;99.90;;;;;;5055092;28;20133;-65
2023/09/06 06:13:34;;;;;;;3.67;1.65;;;17.40;99.90;;;;;;5054540;28;20050;-68
2023/09/06 06:16:01;;;;;;;3.45;1.45;;;17.50;99.90;;;;;;5051512;28;20054;-67
2023/09/06 06:18:27;;;;;;;4.43;1.80;;;17.60;99.90;;;;;;4987356;28;20053;-67
2023/09/06 06:20:53;;;;;;;5.32;1.92;;;17.70;99.90;;;;;;5054748;28;20042;-68
2023/09/06 06:23:18;;;;;;;2.53;1.50;;;18.00;99.90;;;;;;4987737;28;20121;-71
2023/09/06 06:25:44;;;;;;;2.65;1.50;;;18.30;99.90;;;;;;5054447;28;20782;-67
2023/09/06 06:28:10;;;;;;;3.92;2.20;;;18.60;99.90;;;;;;5058159;28;20138;-68
2023/09/06 06:30:36;;;;;;;2.78;1.67;;;18.90;99.90;;;;;;4991512;28;20091;-71
2023/09/06 06:33:01;;;;;;;5.32;1.85;;;19.20;99.90;;;;;;5058561;28;20638;-67
2023/09/06 06:35:28;;;;;;;2.17;1.38;;;19.50;99.90;;;;;;5010810;28;20046;-67
2023/09/06 06:37:53;;;;;;;2.35;1.65;;;19.80;99.90;;;;;;5010855;28;20416;-66
2023/09/06 06:40:19;;;;;;;2.92;1.40;;;20.10;99.90;;;;;;5078317;28;20046;-66
2023/09/06 06:42:45;;;;;;;2.92;1.35;;;20.10;99.90;;;;;;5000204;28;20039;-67
2023/09/06 06:45:11;;;;;;;2.53;1.42;;;20.00;99.90;;;;;;4991073;28;20101;-68
2023/09/06 06:47:37;;;;;;;3.60;1.77;;;19.90;99.90;;;;;;4990168;28;20070;-68
2023/09/06 06:50:06;;;;;;;3.75;1.80;;;19.80;99.90;;;;;;4990699;28;20474;-67
2023/09/06 06:52:36;;;;;;;3.63;1.88;;;19.80;99.90;;;;;;5059027;28;20079;-67
2023/09/06 06:55:03;;;;;;;3.53;1.65;;;19.70;99.90;;;;;;5093226;28;20040;-67
2023/09/06 06:57:30;;;;;;;3.17;1.50;;;19.60;99.90;;;;;;5075850;28;20044;-66
2023/09/06 06:59:56;;;;;;;4.03;1.77;;;19.70;99.90;;;;;;5058055;28;20042;-69
2023/09/06 07:02:22;;;;;;;3.67;1.85;;;19.70;99.90;;;;;;5057704;28;20050;-69
2023/09/06 07:04:48;;;;;;;4.68;1.83;;;19.70;99.90;;;;;;5041592;28;20056;-68
2023/09/06 07:07:13;;;;;;;4.65;2.08;;;19.70;99.90;;;;;;5057760;28;20038;-68
2023/09/06 07:09:39;;;;;;;4.75;1.80;;;19.70;99.90;;;;;;5041394;28;20038;-67
2023/09/06 07:12:05;;;;;;;2.70;1.40;;;19.70;99.90;;;;;;4987434;28;20104;-66
2023/09/06 07:14:31;;;;;;;4.43;1.58;;;19.70;99.90;;;;;;5054869;28;20506;-64
2023/09/06 07:16:58;;;;;;;4.28;1.60;;;19.80;99.90;;;;;;4990435;28;20038;-69
2023/09/06 07:19:24;;;;;;;2.67;1.67;;;19.90;99.90;;;;;;4990632;28;20042;-67
2023/09/06 07:21:50;;;;;;;2.88;1.80;;;19.90;99.90;;;;;;4988812;28;20046;-67
2023/09/06 07:24:16;;;;;;;3.72;1.80;;;19.90;99.90;;;;;;4989310;28;20537;-70
2023/09/06 07:26:42;;;;;;;3.25;1.85;;;20.00;99.90;;;;;;4989205;28;20054;-67
2023/09/06 07:29:10;;;;;;;4.28;1.70;;;20.00;99.90;;;;;;4988495;28;20128;-66
2023/09/06 07:31:36;;;;;;;4.90;1.75;;;20.10;99.90;;;;;;4989089;28;20051;-68
2023/09/06 07:34:02;;;;;;;3.75;1.75;;;20.20;99.90;;;;;;4990295;28;20053;-67
2023/09/06 07:36:27;;;;;;;3.38;1.90;;;20.30;99.90;;;;;;5040555;28;20390;-63
2023/09/06 07:38:55;;;;;;;2.45;1.58;;;20.40;99.90;;;;;;4990213;28;20081;-66
2023/09/06 07:41:21;;;;;;;3.03;1.83;;;20.50;99.90;;;;;;5057705;28;20056;-70
2023/09/06 07:43:46;;;;;;;2.33;1.52;;;20.70;99.90;;;;;;4989733;28;20100;-69
2023/09/06 07:46:12;;;;;;;3.33;1.52;;;20.70;99.90;;;;;;5057541;28;20047;-63
2023/09/06 07:48:41;;;;;;;3.95;1.73;;;20.80;99.90;;;;;;5057750;28;20054;-68
2023/09/06 07:51:08;;;;;;;5.30;1.75;;;20.90;99.90;;;;;;5056931;28;20511;-62
2023/09/06 07:53:34;;;;;;;2.55;1.67;;;21.00;99.90;;;;;;5040292;28;20058;-67
2023/09/06 07:56:00;;;;;;;7.18;2.33;;;21.10;99.90;;;;;;5037707;28;20035;-65
2023/09/06 07:58:26;;;;;;;3.42;2.00;;;21.20;99.90;;;;;;5053785;28;20039;-69
2023/09/06 08:00:52;;;;;;;4.32;1.67;;;21.30;99.90;;;;;;4992952;28;20049;-68
2023/09/06 08:03:18;;;;;;;3.30;1.90;;;21.40;99.90;;;;;;5073709;28;20036;-66
2023/09/06 08:05:46;;;;;;;2.45;1.27;;;21.60;99.90;;;;;;5074043;28;20124;-67
2023/09/06 08:08:11;;;;;;;3.47;1.73;;;21.90;99.90;;;;;;5057079;28;20050;-69
2023/09/06 08:10:38;;;;;;;3.08;1.60;;;22.40;99.90;;;;;;5056736;28;20042;-68
2023/09/06 08:13:04;;;;;;;4.50;1.83;;;23.00;99.90;;;;;;5056874;28;20491;-65
2023/09/06 08:15:34;;;;;;;2.67;1.63;;;23.60;99.90;;;;;;4989297;28;20049;-66
2023/09/06 08:18:03;;;;;;;3.58;1.92;;;24.00;99.90;;;;;;4988225;28;20412;-67
2023/09/06 08:20:29;;;;;;;4.45;1.77;;;24.40;99.90;;;;;;4972315;28;20157;-69
2023/09/06 08:22:55;;;;;;;3.70;1.70;;;24.80;99.90;;;;;;4988429;28;20654;-70
2023/09/06 08:25:21;;;;;;;2.50;1.35;;;25.20;99.90;;;;;;4988778;28;20054;-69
2023/09/06 08:27:49;;;;;;;4.88;1.77;;;25.60;99.90;;;;;;4989094;28;20054;-68
2023/09/06 08:30:17;;;;;;;2.40;1.25;;;26.10;99.90;;;;;;5056553;28;20046;-70
2023/09/06 08:32:45;;;;;;;2.45;1.08;;;26.40;99.90;;;;;;4988643;28;20075;-68
2023/09/06 08:35:12;;;;;;;4.53;1.60;;;26.80;99.90;;;;;;5074393;28;20046;-69
2023/09/06 08:37:38;;;;;;;3.67;1.77;;;27.10;99.90;;;;;;5009166;28;20051;-70
2023/09/06 08:40:07;;;;;;;3.45;1.42;;;27.20;99.90;;;;;;5056346;28;20140;-70
2023/09/06 08:42:34;;;;;;;3.50;1.38;;;27.30;99.90;;;;;;5039579;28;20039;-67
2023/09/06 08:45:02;;;;;;;2.53;1.20;;;27.40;99.90;;;;;;4989046;28;20117;-71
2023/09/06 08:47:28;;;;;;;2.38;1.63;;;27.60;99.90;;;;;;5056017;28;20111;-68
2023/09/06 08:49:54;;;;;;;3.70;1.48;;;27.70;99.90;;;;;;4971282;28;20372;-71
2023/09/06 08:52:21;;;;;;;3.40;1.50;;;27.70;99.90;;;;;;5036188;28;20104;-69
2023/09/06 08:54:50;;;;;;;2.90;1.15;;;27.70;99.90;;;;;;4969539;28;20035;-70
2023/09/06 08:57:15;;;;;;;;;;;27.90;99.90;;;;;;5044704;28;20046;-71
2023/09/06 08:59:41;;;;;;;2.03;0.90;;;28.00;99.90;;;;;;5055168;28;19925;-68
2023/09/06 09:02:12;;;;;;;4.00;1.48;;;28.10;99.90;;;;;;5056132;28;20448;-68
2023/09/06 09:04:47;;;;;;;2.35;1.05;;;28.20;99.90;;;;;;5056138;28;20091;-74
2023/09/06 09:07:13;;;;;;;4.35;1.13;;;28.30;99.90;;;;;;5072463;28;20487;-72
2023/09/06 09:09:55;;;;;;;2.58;1.13;;;28.30;99.90;;;;;;5073010;28;20039;-70
2023/09/06 09:12:25;;;;;;;2.05;1.15;;;28.30;99.90;;;;;;5091209;28;20422;-68
2023/09/06 09:14:52;;;;;;;3.30;1.42;;;28.50;99.90;;;;;;5056303;28;20060;-71
2023/09/06 09:17:23;;;;;;;2.08;1.20;;;28.60;99.90;;;;;;4988878;28;20078;-69
2023/09/06 09:19:59;;;;;;;2.53;1.20;;;28.80;99.90;;;;;;4987286;28;20138;-74
2023/09/06 09:22:34;;;;;;;3.53;1.23;;;29.10;99.90;;;;;;4988197;28;20057;-66
2023/09/06 09:25:04;;;;;;;5.03;1.50;;;29.30;99.90;;;;;;4988496;28;20522;-71
2023/09/06 09:27:32;;;;;;;3.60;1.10;;;29.40;99.90;;;;;;4970553;28;20055;-69
2023/09/06 09:30:03;;;;;;;2.37;1.00;;;29.50;99.90;;;;;;4987760;28;20046;-72
2023/09/06 09:32:30;;;;;;;2.58;1.20;;;29.60;99.90;;;;;;4971570;28;20038;-69
2023/09/06 09:34:56;;;;;;;2.50;1.40;;;29.60;99.90;;;;;;4970699;28;20119;-70
2023/09/06 09:37:22;;;;;;;1.27;0.90;;;29.70;99.90;;;;;;4987081;28;20126;-71
2023/09/06 09:39:48;;;;;;;2.25;1.30;;;29.70;99.90;;;;;;5045850;28;20121;-68
2023/09/06 09:42:14;;;;;;;2.85;1.10;;;29.80;99.40;;;;;;5054901;28;20550;-69
2023/09/06 09:44:41;;;;;;;2.40;1.33;;;29.80;99.20;;;;;;4988695;28;20095;-71
2023/09/06 09:47:12;;;;;;;2.53;1.20;;;29.90;99.60;;;;;;4988535;28;20467;-70
2023/09/06 09:49:42;;;;;;;1.95;0.90;;;30.10;99.00;;;;;;4987699;28;20056;-68
2023/09/06 09:52:13;;;;;;;3.95;1.52;;;30.20;98.40;;;;;;5055077;28;20076;-71
2023/09/06 09:54:45;;;;;;;1.73;0.93;;;30.20;96.50;;;;;;5054923;28;20047;-71
2023/09/06 09:57:12;;;;;;;2.25;1.13;;;30.20;97.20;;;;;;5054680;28;20054;-73
2023/09/06 09:59:38;;;;;;;2.22;1.15;;;30.40;97.40;;;;;;5054813;28;20544;-72
2023/09/06 10:02:06;;;;;;;2.15;0.90;;;30.60;97.00;;;;;;5038410;28;20053;-70
2023/09/06 10:04:37;;;;;;;2.92;1.10;;;30.70;96.40;;;;;;5054697;28;20042;-71
2023/09/06 10:07:09;;;;;;;2.38;1.10;;;30.90;96.00;;;;;;5072079;28;20400;-70
2023/09/06 10:09:38;;;;;;;3.33;0.82;;;31.10;95.90;;;;;;5071490;28;20044;-70
2023/09/06 10:12:09;;;;;;;1.67;1.02;;;31.40;95.20;;;;;;5038539;28;20486;-73
2023/09/06 10:14:38;;;;;;;1.55;0.73;;;31.60;95.10;;;;;;5054791;28;20054;-71
2023/09/06 10:17:07;;;;;;;0.88;0.50;;;31.80;94.60;;;;;;5054503;28;20413;-72
2023/09/06 10:19:33;;;;;;;2.88;1.23;;;31.80;94.50;;;;;;5055601;28;20375;-70
2023/09/06 10:22:01;;;;;;;2.03;0.90;;;31.80;93.70;;;;;;4988014;28;20458;-69
2023/09/06 10:24:32;;;;;;;1.42;0.82;;;31.90;93.40;;;;;;4987235;28;20053;-71
2023/09/06 10:26:58;;;;;;;2.10;1.13;;;31.90;93.50;;;;;;5054987;28;20533;-68
2023/09/06 10:29:28;;;;;;;2.25;0.75;;;32.00;93.40;;;;;;5055152;28;20081;-68
2023/09/06 10:32:01;;;;;;;1.88;1.00;;;32.20;93.60;;;;;;5054430;28;20454;-70
2023/09/06 10:34:32;;;;;;;1.08;0.68;;;32.30;92.60;;;;;;4987641;28;20121;-70
2023/09/06 10:37:00;;;;;;;2.00;1.05;;;32.50;93.00;;;;;;4987465;28;20050;-71
2023/09/06 10:39:28;;;;;;;1.80;0.85;;;32.50;92.90;;;;;;5054407;28;20103;-75
2023/09/06 10:42:09;;;;;;;2.47;1.05;;;32.60;91.80;;;;;;5041374;28;20043;-72
2023/09/06 10:44:53;;;;;;;3.25;0.93;;;32.50;89.30;;;;;;4968153;28;20104;-68
2023/09/06 10:47:40;;;;;;;1.27;0.70;;;32.40;88.10;;;;;;4968434;28;20046;-71
2023/09/06 10:50:11;;;;;;;1.30;0.75;;;32.20;89.40;;;;;;5056908;28;20050;-72
2023/09/06 10:52:40;;;;;;;3.10;1.00;;;32.30;91.10;;;;;;5074299;28;20049;-70
2023/09/06 10:55:13;;;;;;;2.20;0.85;;;32.40;91.30;;;;;;5074840;28;20058;-72
2023/09/06 10:58:00;;;;;;;4.72;0.82;;;32.50;90.80;;;;;;5075153;28;20125;-72
2023/09/06 11:00:30;;;;;;;2.13;0.85;;;32.50;89.80;;;;;;5058167;28;20081;-69
2023/09/06 11:03:08;;;;;;;1.17;0.70;;;32.50;88.30;;;;;;4987280;28;20475;-70
2023/09/06 11:05:50;;;;;;;1.75;0.80;;;32.30;88.90;;;;;;5054151;28;20498;-70
2023/09/06 11:08:29;;;;;;;2.17;0.80;;;32.00;88.40;;;;;;5054611;28;20058;-73
2023/09/06 11:11:04;;;;;;;1.92;1.23;;;31.80;86.30;;;;;;4987536;28;20057;-70
2023/09/06 11:13:32;;;;;;;1.40;0.75;;;31.60;86.20;;;;;;5028218;28;20045;-69
2023/09/06 11:15:57;;;;;;;1.95;0.60;;;31.50;87.50;;;;;;5058015;28;20556;-73
2023/09/06 11:18:23;;;;;;;1.92;0.80;;;31.40;87.40;;;;;;5041725;28;20125;-71
2023/09/06 11:20:50;;;;;;;1.58;0.75;;;31.40;88.00;;;;;;5056566;28;20663;-71
2023/09/06 11:23:16;;;;;;;2.50;0.88;;;31.30;87.80;;;;;;5057685;28;20045;-69
2023/09/06 11:25:43;;;;;;;1.55;0.60;;;31.30;87.70;;;;;;4990570;28;20050;-72
2023/09/06 11:28:20;;;;;;;1.70;0.75;;;31.10;87.60;;;;;;4989646;28;20391;-70
2023/09/06 11:30:49;;;;;;;2.15;0.80;;;30.80;88.80;;;;;;4990444;28;20046;-70
2023/09/06 11:33:16;;;;;;;2.08;0.90;;;30.60;89.30;;;;;;5073312;28;20058;-72
2023/09/06 11:35:55;;;;;;;1.98;0.80;;;30.60;90.10;;;;;;5010316;28;20035;-69
2023/09/06 11:38:28;;;;;;;1.60;0.85;;;30.70;89.60;;;;;;5039394;28;20386;-69
2023/09/06 11:40:56;;;;;;;1.30;0.80;;;30.80;89.90;;;;;;5057029;28;20053;-72
2023/09/06 11:43:23;;;;;;;1.55;1.00;;;30.90;88.80;;;;;;5057693;28;20046;-71
2023/09/06 11:45:55;;;;;;;1.48;0.68;;;30.80;88.80;;;;;;4990426;28;20129;-71
2023/09/06 11:48:30;;;;;;;2.30;0.52;;;30.80;89.80;;;;;;5057443;28;20127;-71
2023/09/06 11:51:08;;;;;;;1.88;0.63;;;30.80;88.50;;;;;;5058511;28;20046;-73
2023/09/06 11:53:43;;;;;;;0.85;0.52;;;30.70;88.30;;;;;;5077544;28;20054;-71
2023/09/06 11:56:11;;;;;;;3.67;1.13;;;30.60;86.10;;;;;;5077269;28;20150;-69
2023/09/06 11:58:45;;;;;;;2.28;0.93;;;30.40;86.50;;;;;;5077216;28;20058;-69
2023/09/06 12:01:12;;;;;;;2.40;0.75;;;30.30;87.30;;;;;;4990024;28;20046;-69
2023/09/06 12:03:45;;;;;;;1.35;0.52;;;30.20;86.90;;;;;;5057014;28;20046;-72
2023/09/06 12:06:10;;;;;;;1.92;0.80;;;30.20;86.60;;;;;;4990357;28;20060;-71
2023/09/06 12:08:38;;;;;;;2.58;1.10;;;30.20;87.00;;;;;;5056971;28;20050;-69
2023/09/06 12:11:11;;;;;;;3.05;0.68;;;30.20;87.20;;;;;;5040614;28;20050;-70
2023/09/06 12:13:38;;;;;;;1.20;0.60;;;30.20;86.10;;;;;;5040402;28;20080;-71
2023/09/06 12:16:09;;;;;;;1.70;0.93;;;30.20;87.90;;;;;;5056592;28;20490;-71
2023/09/06 12:18:36;;;;;;;2.55;0.70;;;30.30;86.80;;;;;;4989741;28;20487;-68
2023/09/06 12:21:04;;;;;;;0.90;0.50;;;30.30;86.50;;;;;;4989718;28;20034;-70
2023/09/06 12:23:30;;;;;;;1.30;0.77;;;30.20;87.00;;;;;;4988986;28;20073;-72
2023/09/06 12:25:57;;;;;;;1.40;0.80;;;30.10;87.20;;;;;;5055818;28;20297;-70
2023/09/06 12:28:23;;;;;;;2.33;1.10;;;30.10;87.60;;;;;;5056912;28;20046;-70
2023/09/06 12:30:55;;;;;;;1.50;0.70;;;30.20;87.60;;;;;;4988973;28;20069;-71
2023/09/06 12:33:24;;;;;;;1.65;0.85;;;30.20;86.40;;;;;;4985282;28;20038;-70
2023/09/06 12:35:59;;;;;;;1.23;0.60;;;30.20;86.70;;;;;;5069533;28;20510;-72
2023/09/06 12:38:29;;;;;;;1.70;0.75;;;30.30;86.30;;;;;;4989050;28;20046;-73
2023/09/06 12:40:56;;;;;;;1.23;0.50;;;30.30;85.40;;;;;;4989696;28;20038;-70
2023/09/06 12:43:24;;;;;;;1.17;0.63;;;30.30;85.40;;;;;;5056689;28;20110;-71
2023/09/06 12:45:53;;;;;;;1.73;0.75;;;30.50;85.40;;;;;;5056494;28;20046;-71
2023/09/06 12:48:21;;;;;;;1.70;0.77;;;30.70;84.30;;;;;;5056660;28;20046;-72
2023/09/06 12:50:48;;;;;;;2.45;0.55;;;30.70;84.50;;;;;;5000063;28;20057;-66
2023/09/06 12:53:13;;;;;;;1.33;0.60;;;30.70;83.70;;;;;;5056217;28;20126;-72